createdAt,value
2023-02-15T00:02:08.902Z,101285.25
2023-02-15T00:04:49.090Z,101283.63
2023-02-15T00:07:20.453Z,101287.72
2023-02-15T00:09:48.894Z,101291.31
2023-02-15T00:12:17.789Z,101293.03
2023-02-15T00:14:46.118Z,101289.72
2023-02-15T00:17:14.074Z,101294.53
2023-02-15T00:19:42.118Z,101292.06
2023-02-15T00:22:10.387Z,101299.94
2023-02-15T00:24:39.611Z,101296.22
2023-02-15T00:27:07.533Z,101292.28
2023-02-15T00:29:35.376Z,101298.56
2023-02-15T00:32:03.294Z,101287.41
2023-02-15T00:34:31.226Z,101289.53
2023-02-15T00:36:59.292Z,101284.31
2023-02-15T00:39:28.345Z,101290.75
2023-02-15T00:41:57.662Z,101293.09
2023-02-15T00:44:25.589Z,101291.34
2023-02-15T00:46:53.482Z,101282.06
2023-02-15T00:49:22.397Z,101270.56
2023-02-15T00:51:50.294Z,101289.47
2023-02-15T00:54:18.254Z,101291.81
2023-02-15T00:56:46.074Z,101290.94
2023-02-15T00:59:15.502Z,101290.19
2023-02-15T01:01:43.385Z,101286.00
2023-02-15T01:04:11.344Z,101279.66
2023-02-15T01:06:39.271Z,101277.31
2023-02-15T01:09:07.301Z,101275.06
2023-02-15T01:11:35.238Z,101280.00
2023-02-15T01:14:04.148Z,101284.72
2023-02-15T01:16:33.483Z,101260.34
2023-02-15T01:19:03.470Z,101280.00
2023-02-15T01:21:35.353Z,101271.84
2023-02-15T01:24:04.495Z,101269.03
2023-02-15T01:26:32.434Z,101273.09
2023-02-15T01:29:00.493Z,101272.09
2023-02-15T01:31:28.457Z,101269.09
2023-02-15T01:33:57.894Z,101277.56
2023-02-15T01:36:25.990Z,101265.47
2023-02-15T01:38:53.897Z,101272.47
2023-02-15T01:41:23.697Z,101268.00
2023-02-15T01:43:54.177Z,101270.47
2023-02-15T01:46:26.631Z,101270.19
2023-02-15T01:48:59.658Z,101279.09
2023-02-15T01:51:31.331Z,101278.84
2023-02-15T01:54:03.711Z,101273.63
2023-02-15T01:56:35.537Z,101264.16
2023-02-15T01:59:09.900Z,101267.50
2023-02-15T02:01:38.499Z,101271.81
2023-02-15T02:04:14.362Z,101268.88
2023-02-15T02:06:42.378Z,101273.09
2023-02-15T02:09:11.304Z,101266.00
2023-02-15T02:11:41.321Z,101261.22
2023-02-15T02:14:10.001Z,101263.50
2023-02-15T02:16:45.275Z,101259.56
2023-02-15T02:19:40.773Z,101256.34
2023-02-15T02:22:42.239Z,101253.88
2023-02-15T02:25:51.332Z,101253.75
2023-02-15T02:28:43.850Z,101247.94
2023-02-15T02:31:38.192Z,101244.75
2023-02-15T02:34:15.451Z,101252.88
2023-02-15T02:36:50.273Z,101250.88
2023-02-15T02:39:32.215Z,101249.56
2023-02-15T02:42:07.819Z,101248.03
2023-02-15T02:44:44.911Z,101251.97
2023-02-15T02:47:18.371Z,101244.09
2023-02-15T02:49:47.646Z,101248.44
2023-02-15T02:52:38.495Z,101245.09
2023-02-15T02:55:11.694Z,101244.63
2023-02-15T02:57:44.576Z,101235.59
2023-02-15T03:00:16.744Z,101237.63
2023-02-15T03:02:49.966Z,101238.44
2023-02-15T03:05:26.220Z,101239.44
2023-02-15T03:07:57.927Z,101245.03
2023-02-15T03:10:28.353Z,101239.00
2023-02-15T03:12:56.329Z,101247.03
2023-02-15T03:15:49.019Z,101238.97
2023-02-15T03:18:19.246Z,101238.06
2023-02-15T03:20:49.859Z,101238.91
2023-02-15T03:23:21.823Z,101245.66
2023-02-15T03:25:54.360Z,101229.50
2023-02-15T03:28:31.117Z,101240.28
2023-02-15T03:31:03.001Z,101247.22
2023-02-15T03:33:31.805Z,101248.38
2023-02-15T03:36:06.933Z,101245.16
2023-02-15T03:38:44.285Z,101251.69
2023-02-15T03:41:15.147Z,101230.41
2023-02-15T03:43:50.196Z,101253.28
2023-02-15T03:46:26.564Z,101250.69
2023-02-15T03:48:56.505Z,101250.41
2023-02-15T03:51:39.124Z,101256.94
2023-02-15T03:54:10.609Z,101225.00
2023-02-15T03:56:40.743Z,101254.19
2023-02-15T03:59:26.358Z,101254.00
2023-02-15T04:02:11.974Z,101250.84
2023-02-15T04:04:43.116Z,101246.19
2023-02-15T04:07:12.945Z,101251.41
2023-02-15T04:09:58.294Z,101253.41
2023-02-15T04:12:26.246Z,101251.22
2023-02-15T04:15:11.749Z,101249.38
2023-02-15T04:17:40.174Z,101257.75
2023-02-15T04:20:27.808Z,101251.38
2023-02-15T04:23:14.394Z,101257.88
2023-02-15T04:25:42.305Z,101251.28
2023-02-15T04:28:10.715Z,101247.09
2023-02-15T04:30:38.714Z,101256.03
2023-02-15T04:33:06.657Z,101259.50
2023-02-15T04:35:34.593Z,101255.19
2023-02-15T04:38:04.018Z,101252.25
2023-02-15T04:40:32.184Z,101253.13
2023-02-15T04:43:00.146Z,101256.59
2023-02-15T04:45:28.190Z,101253.13
2023-02-15T04:47:56.231Z,101256.31
2023-02-15T04:50:24.226Z,101241.44
2023-02-15T04:52:54.698Z,101256.34
2023-02-15T04:55:24.110Z,101253.50
2023-02-15T04:57:51.968Z,101246.84
2023-02-15T05:00:20.557Z,101251.28
2023-02-15T05:02:48.503Z,101246.50
2023-02-15T05:05:16.583Z,101247.09
2023-02-15T05:07:44.443Z,101250.56
2023-02-15T05:10:12.563Z,101252.03
2023-02-15T05:12:42.132Z,101249.31
2023-02-15T05:15:10.869Z,101249.31
2023-02-15T05:17:38.914Z,101248.31
2023-02-15T05:20:08.445Z,101249.75
2023-02-15T05:22:36.558Z,101250.50
2023-02-15T05:25:22.229Z,101246.28
2023-02-15T05:28:09.210Z,101250.94
2023-02-15T05:30:37.491Z,101253.25
2023-02-15T05:33:05.433Z,101257.03
2023-02-15T05:35:33.861Z,101261.97
2023-02-15T05:38:01.810Z,101270.84
2023-02-15T05:40:29.679Z,101266.03
2023-02-15T05:42:59.656Z,101275.28
2023-02-15T05:45:27.755Z,101274.69
2023-02-15T05:47:55.954Z,101273.84
2023-02-15T05:50:23.755Z,101277.88
2023-02-15T05:52:52.561Z,101276.00
2023-02-15T05:55:20.972Z,101276.78
2023-02-15T05:57:48.988Z,101282.59
2023-02-15T06:00:20.379Z,101291.56
2023-02-15T06:02:48.301Z,101293.59
2023-02-15T06:05:16.349Z,101298.78
2023-02-15T06:07:45.251Z,101301.66
2023-02-15T06:10:13.842Z,101298.66
2023-02-15T06:12:41.861Z,101306.31
2023-02-15T06:15:10.646Z,101310.97
2023-02-15T06:17:39.982Z,101312.44
2023-02-15T06:20:09.306Z,101310.97
2023-02-15T06:22:37.281Z,101320.34
2023-02-15T06:25:05.608Z,101327.31
2023-02-15T06:27:33.722Z,101337.44
2023-02-15T06:30:01.687Z,101334.41
2023-02-15T06:32:30.121Z,101336.13
2023-02-15T06:34:59.486Z,101333.81
2023-02-15T06:37:27.407Z,101342.22
2023-02-15T06:39:55.299Z,101340.72
2023-02-15T06:42:23.616Z,101334.34
2023-02-15T06:44:51.717Z,101337.53
2023-02-15T06:47:19.557Z,101336.66
2023-02-15T06:49:47.411Z,101333.22
2023-02-15T06:52:16.687Z,101321.34
2023-02-15T06:54:44.516Z,101318.09
2023-02-15T06:57:12.445Z,101308.44
2023-02-15T06:59:40.358Z,101322.31
2023-02-15T07:02:08.322Z,101321.84
2023-02-15T07:04:36.756Z,101322.13
2023-02-15T07:07:04.724Z,101315.47
2023-02-15T07:09:34.052Z,101320.97
2023-02-15T07:12:19.664Z,101314.88
2023-02-15T07:14:47.550Z,101314.53
2023-02-15T07:17:35.094Z,101310.16
2023-02-15T07:20:03.850Z,101318.13
2023-02-15T07:22:31.828Z,101297.84
2023-02-15T07:25:01.093Z,101315.00
2023-02-15T07:27:28.954Z,101310.47
2023-02-15T07:29:56.904Z,101313.38
2023-02-15T07:32:24.929Z,101306.25
2023-02-15T07:34:52.866Z,101311.91
2023-02-15T07:37:20.786Z,101307.94
2023-02-15T07:39:48.676Z,101310.53
2023-02-15T07:42:18.863Z,101314.47
2023-02-15T07:44:48.212Z,101312.84
2023-02-15T07:47:16.265Z,101313.47
2023-02-15T07:49:44.282Z,101315.84
2023-02-15T07:52:12.281Z,101308.25
2023-02-15T07:54:40.285Z,101304.97
2023-02-15T07:57:08.248Z,101300.03
2023-02-15T07:59:37.532Z,101298.31
2023-02-15T08:02:07.243Z,101297.59
2023-02-15T08:04:35.086Z,101301.41
2023-02-15T08:07:02.870Z,101299.59
2023-02-15T08:09:30.776Z,101296.56
2023-02-15T08:11:58.655Z,101272.22
2023-02-15T08:14:26.579Z,101279.75
2023-02-15T08:16:57.286Z,101283.28
2023-02-15T08:19:26.584Z,101287.81
2023-02-15T08:21:57.822Z,101281.03
2023-02-15T08:24:28.325Z,101270.56
2023-02-15T08:26:56.728Z,101284.72
2023-02-15T08:29:26.570Z,101277.53
2023-02-15T08:31:59.673Z,101268.66
2023-02-15T08:34:28.073Z,101279.94
2023-02-15T08:36:56.014Z,101276.38
2023-02-15T08:39:24.351Z,101285.75
2023-02-15T08:41:52.280Z,101276.13
2023-02-15T08:44:21.476Z,101280.00
2023-02-15T08:46:50.722Z,101282.84
2023-02-15T08:49:21.964Z,101270.31
2023-02-15T08:51:51.229Z,101265.88
2023-02-15T08:54:21.578Z,101268.38
2023-02-15T08:56:49.960Z,101266.41
2023-02-15T08:59:19.977Z,101270.13
2023-02-15T09:01:48.662Z,101268.38
2023-02-15T09:04:17.255Z,101275.59
2023-02-15T09:06:49.184Z,101275.13
2023-02-15T09:09:17.601Z,101268.78
2023-02-15T09:11:48.353Z,101268.78
2023-02-15T09:14:18.393Z,101271.28
2023-02-15T09:16:49.590Z,101273.75
2023-02-15T09:19:18.434Z,101273.53
2023-02-15T09:21:47.836Z,101277.34
2023-02-15T09:24:17.416Z,101269.56
2023-02-15T09:26:48.513Z,101278.22
2023-02-15T09:29:18.018Z,101274.50
2023-02-15T09:31:49.621Z,101264.38
2023-02-15T09:34:19.682Z,101273.66
2023-02-15T09:36:49.241Z,101271.31
2023-02-15T09:39:19.511Z,101272.44
2023-02-15T09:42:06.498Z,101275.13
2023-02-15T09:44:48.859Z,101272.31
2023-02-15T09:47:38.270Z,101271.91
2023-02-15T09:50:20.236Z,101266.09
2023-02-15T09:53:14.365Z,101267.31
2023-02-15T09:55:53.260Z,101260.16
2023-02-15T09:58:31.256Z,101263.25
2023-02-15T10:01:05.730Z,101256.44
2023-02-15T10:03:52.768Z,101259.16
2023-02-15T10:06:42.822Z,101252.50
2023-02-15T10:09:26.926Z,101261.25
2023-02-15T10:12:09.348Z,101267.56
2023-02-15T10:14:57.965Z,101265.56
2023-02-15T10:17:41.597Z,101264.06
2023-02-15T10:20:20.036Z,101253.78
2023-02-15T10:23:00.934Z,101247.47
2023-02-15T10:25:42.381Z,101251.91
2023-02-15T10:28:19.569Z,101245.69
2023-02-15T10:30:51.484Z,101243.69
2023-02-15T10:33:40.095Z,101239.97
2023-02-15T10:36:28.959Z,101236.25
2023-02-15T10:39:04.357Z,101232.47
2023-02-15T10:41:47.147Z,101222.06
2023-02-15T10:44:35.805Z,101218.56
2023-02-15T10:47:19.283Z,101219.88
2023-02-15T10:50:02.650Z,101220.47
2023-02-15T10:52:43.121Z,101220.94
2023-02-15T10:55:20.742Z,101223.72
2023-02-15T10:58:01.250Z,101224.09
2023-02-15T11:00:40.162Z,101214.63
2023-02-15T11:03:23.574Z,101215.72
2023-02-15T11:06:02.138Z,101194.56
2023-02-15T11:08:33.688Z,101207.00
2023-02-15T11:11:06.305Z,101216.16
2023-02-15T11:13:40.805Z,101204.13
2023-02-15T11:16:13.553Z,101204.34
2023-02-15T11:18:46.462Z,101204.22
2023-02-15T11:21:22.654Z,101198.41
2023-02-15T11:23:51.308Z,101190.97
2023-02-15T11:26:26.069Z,101197.91
2023-02-15T11:28:59.327Z,101191.19
2023-02-15T11:31:31.473Z,101188.72
2023-02-15T11:34:05.286Z,101181.50
2023-02-15T11:36:38.102Z,101183.25
2023-02-15T11:39:11.742Z,101182.91
2023-02-15T11:41:43.551Z,101182.16
2023-02-15T11:44:21.809Z,101181.53
2023-02-15T11:46:49.714Z,101170.75
2023-02-15T11:49:25.798Z,101181.75
2023-02-15T11:51:55.147Z,101167.28
2023-02-15T11:54:28.788Z,101177.03
2023-02-15T11:56:58.102Z,101165.69
2023-02-15T11:59:34.310Z,101160.06
2023-02-15T12:02:02.320Z,101156.31
2023-02-15T12:04:35.009Z,101160.63
2023-02-15T12:07:08.726Z,101155.69
2023-02-15T12:09:40.522Z,101162.47
2023-02-15T12:12:24.121Z,101157.84
2023-02-15T12:14:55.446Z,101159.03
2023-02-15T12:17:26.118Z,101156.75
2023-02-15T12:19:57.151Z,101154.28
2023-02-15T12:22:27.709Z,101142.97
2023-02-15T12:24:58.530Z,101146.63
2023-02-15T12:27:29.179Z,101145.00
2023-02-15T12:30:03.262Z,101144.34
2023-02-15T12:32:36.884Z,101142.84
2023-02-15T12:35:15.504Z,101122.13
2023-02-15T12:37:56.956Z,101138.50
2023-02-15T12:40:26.924Z,101126.31
2023-02-15T12:42:54.746Z,101125.78
2023-02-15T12:45:27.229Z,101118.78
2023-02-15T12:48:16.795Z,101124.81
2023-02-15T12:50:46.195Z,101112.06
2023-02-15T12:53:21.003Z,101106.22
2023-02-15T12:55:54.649Z,101110.34
2023-02-15T12:58:26.096Z,101101.47
2023-02-15T13:01:13.771Z,101102.75
2023-02-15T13:03:57.487Z,101096.88
2023-02-15T13:06:25.834Z,101095.78
2023-02-15T13:08:59.558Z,101098.78
2023-02-15T13:11:35.012Z,101098.97
2023-02-15T13:14:05.322Z,101096.13
2023-02-15T13:16:38.497Z,101092.44
2023-02-15T13:19:12.982Z,101099.94
2023-02-15T13:21:44.079Z,101094.88
2023-02-15T13:24:20.934Z,101095.75
2023-02-15T13:26:49.790Z,101094.44
2023-02-15T13:29:23.347Z,101087.28
2023-02-15T13:31:54.883Z,101081.22
2023-02-15T13:34:27.516Z,101094.44
2023-02-15T13:37:04.931Z,101094.66
2023-02-15T13:39:40.493Z,101088.91
2023-02-15T13:42:22.575Z,101083.28
2023-02-15T13:45:11.356Z,101081.09
2023-02-15T13:47:47.756Z,101079.16
2023-02-15T13:50:49.674Z,101079.91
2023-02-15T13:53:43.299Z,101086.44
2023-02-15T13:56:18.407Z,101077.16
2023-02-15T13:59:04.899Z,101075.53
2023-02-15T14:01:41.512Z,101086.44
2023-02-15T14:04:41.788Z,101065.09
2023-02-15T14:07:26.588Z,101075.16
2023-02-15T14:10:04.828Z,101077.63
2023-02-15T14:12:48.086Z,101070.72
2023-02-15T14:15:29.660Z,101079.34
2023-02-15T14:18:11.395Z,101074.38
2023-02-15T14:20:52.526Z,101072.09
2023-02-15T14:23:37.079Z,101067.69
2023-02-15T14:26:12.335Z,101057.72
2023-02-15T14:28:47.680Z,101054.47
2023-02-15T14:31:17.705Z,101047.03
2023-02-15T14:33:55.794Z,101054.00
2023-02-15T14:36:27.291Z,101055.53
2023-02-15T14:39:32.661Z,101054.09
2023-02-15T14:42:04.189Z,101055.63
2023-02-15T14:44:39.457Z,101044.81
2023-02-15T14:47:13.174Z,101049.03
2023-02-15T14:49:41.835Z,101042.50
2023-02-15T14:52:13.543Z,101034.78
2023-02-15T14:54:59.398Z,101038.69
2023-02-15T14:57:34.126Z,101039.00
2023-02-15T15:00:09.169Z,101041.47
2023-02-15T15:02:49.922Z,101039.00
2023-02-15T15:05:21.869Z,101038.75
2023-02-15T15:07:54.797Z,101038.00
2023-02-15T15:10:38.704Z,101035.91
2023-02-15T15:13:42.346Z,101034.00
2023-02-15T15:16:43.687Z,101042.78
2023-02-15T15:19:13.633Z,101033.31
2023-02-15T15:22:05.547Z,101048.50
2023-02-15T15:24:55.243Z,101051.25
2023-02-15T15:27:46.647Z,101048.59
2023-02-15T15:31:02.630Z,101032.69
2023-02-15T15:34:01.921Z,101038.81
2023-02-15T15:37:19.678Z,101036.44
2023-02-15T15:40:40.973Z,101027.44
2023-02-15T15:43:34.663Z,101028.94
2023-02-15T15:46:22.856Z,101033.63
2023-02-15T15:48:51.296Z,101037.13
2023-02-15T15:51:22.747Z,101036.81
2023-02-15T15:53:54.273Z,101035.31
2023-02-15T15:56:26.616Z,101025.59
2023-02-15T15:58:57.980Z,101040.94
2023-02-15T16:01:30.912Z,101041.53
2023-02-15T16:04:00.991Z,101039.59
2023-02-15T16:06:36.785Z,101030.31
2023-02-15T16:09:17.527Z,101043.66
2023-02-15T16:11:48.592Z,101046.53
2023-02-15T16:14:21.322Z,101045.00
2023-02-15T16:16:53.050Z,101042.84
2023-02-15T16:19:28.140Z,101050.91
2023-02-15T16:21:59.510Z,101031.69
2023-02-15T16:24:47.783Z,101050.66
2023-02-15T16:27:41.769Z,101051.28
2023-02-15T16:30:30.028Z,101049.13
2023-02-15T16:33:06.473Z,101047.28
2023-02-15T16:35:35.412Z,101045.56
2023-02-15T16:38:04.118Z,101049.66
2023-02-15T16:40:48.148Z,101042.84
2023-02-15T16:43:22.407Z,101040.38
2023-02-15T16:45:50.902Z,101037.78
2023-02-15T16:48:23.083Z,101037.44
2023-02-15T16:50:55.151Z,101036.56
2023-02-15T16:53:26.215Z,101041.09
2023-02-15T16:55:57.373Z,101037.63
2023-02-15T16:58:39.093Z,101039.13
2023-02-15T17:01:10.735Z,101041.47
2023-02-15T17:03:39.162Z,101042.09
2023-02-15T17:06:22.504Z,101037.78
2023-02-15T17:08:50.705Z,101043.34
2023-02-15T17:11:20.851Z,101042.38
2023-02-15T17:14:16.351Z,101044.84
2023-02-15T17:16:50.006Z,101043.13
2023-02-15T17:19:21.443Z,101037.72
2023-02-15T17:21:52.676Z,101037.72
2023-02-15T17:24:26.925Z,101035.25
2023-02-15T17:27:01.376Z,101038.47
2023-02-15T17:29:36.172Z,101030.06
2023-02-15T17:32:05.926Z,101035.53
2023-02-15T17:34:50.431Z,101036.28
2023-02-15T17:37:28.888Z,101037.00
2023-02-15T17:40:00.632Z,101037.44
2023-02-15T17:42:28.686Z,101034.59
2023-02-15T17:44:57.854Z,101036.94
2023-02-15T17:47:27.762Z,101034.38
2023-02-15T17:49:55.823Z,101034.13
2023-02-15T17:52:25.030Z,101033.00
2023-02-15T17:55:10.319Z,101027.84
2023-02-15T17:57:38.661Z,101027.00
2023-02-15T18:00:28.081Z,101019.34
2023-02-15T18:03:13.568Z,101027.75
2023-02-15T18:05:58.968Z,101023.41
2023-02-15T18:08:46.857Z,101024.66
2023-02-15T18:11:32.495Z,101027.75
2023-02-15T18:14:01.460Z,101032.69
2023-02-15T18:16:34.201Z,101024.31
2023-02-15T18:19:04.801Z,101025.78
2023-02-15T18:21:33.823Z,101023.19
2023-02-15T18:24:02.860Z,101023.97
2023-02-15T18:26:31.026Z,101024.59
2023-02-15T18:28:58.824Z,101010.00
2023-02-15T18:31:27.055Z,101021.63
2023-02-15T18:33:59.130Z,101019.78
2023-02-15T18:36:30.209Z,101022.13
2023-02-15T18:38:58.422Z,101029.53
2023-02-15T18:41:26.365Z,101033.50
2023-02-15T18:43:55.478Z,101022.63
2023-02-15T18:46:23.753Z,101035.72
2023-02-15T18:48:51.655Z,101036.38
2023-02-15T18:51:22.677Z,101038.47
2023-02-15T18:53:52.884Z,101039.22
2023-02-15T18:56:23.402Z,101034.91
2023-02-15T18:58:51.335Z,101044.66
2023-02-15T19:01:21.658Z,101050.84
2023-02-15T19:03:51.208Z,101040.22
2023-02-15T19:06:23.053Z,101033.78
2023-02-15T19:08:53.460Z,101033.41
2023-02-15T19:11:25.639Z,101037.28
2023-02-15T19:13:55.010Z,101028.38
2023-02-15T19:16:29.510Z,101033.34
2023-02-15T19:18:57.820Z,101026.78
2023-02-15T19:21:29.307Z,101032.59
2023-02-15T19:24:00.036Z,101035.56
2023-02-15T19:26:44.438Z,101032.59
2023-02-15T19:29:16.897Z,101004.44
2023-02-15T19:31:45.012Z,101026.19
2023-02-15T19:34:17.808Z,101021.97
2023-02-15T19:36:49.928Z,101016.41
2023-02-15T19:39:27.185Z,101029.00
2023-02-15T19:41:55.537Z,101029.13
2023-02-15T19:44:23.721Z,101020.75
2023-02-15T19:46:51.945Z,101027.28
2023-02-15T19:49:19.903Z,101023.94
2023-02-15T19:51:49.530Z,101013.94
2023-02-15T19:54:30.670Z,101010.09
2023-02-15T19:56:59.138Z,100995.44
2023-02-15T19:59:28.884Z,101019.00
2023-02-15T20:01:57.568Z,101021.97
2023-02-15T20:04:26.020Z,101028.13
2023-02-15T20:06:57.972Z,101016.91
2023-02-15T20:09:29.617Z,101021.72
2023-02-15T20:11:57.681Z,101019.25
2023-02-15T20:14:25.643Z,101016.06
2023-02-15T20:16:53.659Z,101012.84
2023-02-15T20:19:21.613Z,101016.44
2023-02-15T20:21:54.333Z,101006.66
2023-02-15T20:24:27.454Z,101020.13
2023-02-15T20:26:55.404Z,101022.47
2023-02-15T20:29:23.218Z,101005.41
2023-02-15T20:31:54.069Z,101025.16
2023-02-15T20:34:23.105Z,101028.09
2023-02-15T20:36:51.236Z,101024.63
2023-02-15T20:39:20.417Z,101029.69
2023-02-15T20:41:49.821Z,101028.56
2023-02-15T20:44:23.561Z,101031.84
2023-02-15T20:46:53.357Z,101019.63
2023-02-15T20:49:21.400Z,101029.50
2023-02-15T20:51:49.495Z,101025.44
2023-02-15T20:54:18.770Z,101020.84
2023-02-15T20:56:47.032Z,101013.91
2023-02-15T20:59:25.739Z,101013.06
2023-02-15T21:01:59.010Z,101015.19
2023-02-15T21:04:31.394Z,101013.09
2023-02-15T21:06:59.920Z,101014.09
2023-02-15T21:09:28.485Z,101016.44
2023-02-15T21:11:59.014Z,101012.78
2023-02-15T21:14:30.078Z,101009.69
2023-02-15T21:16:58.067Z,101007.09
2023-02-15T21:19:26.129Z,101003.84
2023-02-15T21:21:54.578Z,101008.69
2023-02-15T21:24:25.427Z,101012.25
2023-02-15T21:26:54.264Z,101012.50
2023-02-15T21:29:24.720Z,101011.66
2023-02-15T21:31:54.514Z,101010.91
2023-02-15T21:34:22.554Z,101008.09
2023-02-15T21:36:51.783Z,101009.34
2023-02-15T21:39:22.299Z,101007.50
2023-02-15T21:42:09.752Z,101002.03
2023-02-15T21:44:55.530Z,100989.72
2023-02-15T21:47:45.123Z,100992.69
2023-02-15T21:50:32.412Z,100983.03
2023-02-15T21:53:00.535Z,100988.09
2023-02-15T21:55:28.407Z,100987.25
2023-02-15T21:57:56.310Z,100986.38
2023-02-15T22:00:26.008Z,100987.25
2023-02-15T22:02:56.815Z,100992.66
2023-02-15T22:05:27.823Z,100988.84
2023-02-15T22:07:57.106Z,100992.53
2023-02-15T22:10:27.417Z,100983.78
2023-02-15T22:12:56.377Z,100991.25
2023-02-15T22:15:25.832Z,100987.31
2023-02-15T22:17:55.120Z,100991.78
2023-02-15T22:20:25.173Z,100995.84
2023-02-15T22:22:53.924Z,100994.97
2023-02-15T22:25:24.626Z,100983.25
2023-02-15T22:27:54.418Z,100985.47
2023-02-15T22:30:26.690Z,100985.31
2023-02-15T22:32:57.571Z,100982.59
2023-02-15T22:35:27.738Z,100987.78
2023-02-15T22:37:56.326Z,100979.19
2023-02-15T22:40:29.060Z,100983.84
2023-02-15T22:42:58.891Z,100978.38
2023-02-15T22:45:28.167Z,100976.91
2023-02-15T22:48:00.439Z,100977.78
2023-02-15T22:50:30.933Z,100970.25
2023-02-15T22:53:01.690Z,100974.97
2023-02-15T22:55:33.645Z,100966.59
2023-02-15T22:58:02.113Z,100973.53
2023-02-15T23:00:34.775Z,100973.53
2023-02-15T23:03:14.672Z,100962.88
2023-02-15T23:05:42.516Z,100963.53
2023-02-15T23:08:11.156Z,100974.47
2023-02-15T23:10:40.524Z,100981.13
2023-02-15T23:13:25.811Z,100972.84
2023-02-15T23:15:58.768Z,100981.38
2023-02-15T23:18:31.905Z,100979.19
2023-02-15T23:21:02.253Z,100977.53
2023-02-15T23:23:33.724Z,100982.59
2023-02-15T23:26:04.227Z,100977.66
2023-02-15T23:28:35.969Z,100973.72
2023-02-15T23:31:04.627Z,100971.94
2023-02-15T23:33:35.969Z,100976.66
2023-02-15T23:36:05.012Z,100982.38
2023-02-15T23:38:33.785Z,100955.94
2023-02-15T23:41:21.190Z,100981.66
2023-02-15T23:43:53.323Z,100975.50
2023-02-15T23:46:28.335Z,100971.19
2023-02-15T23:48:57.983Z,100975.78
2023-02-15T23:51:30.697Z,100970.59
2023-02-15T23:53:58.863Z,100970.72
2023-02-15T23:56:26.856Z,100967.38
2023-02-15T23:58:54.866Z,100968.84
